Terminal Aerodrome Forecast
Issued by NWS

Home | Current Version | Previous Version | Text Only | Print | Product List | Glossary On
Versions: 1 2 3 4 5 6 7 8 9 10 11 12 13 14 15
000
FTAK31 PAJN 240500
TAFASI
TAF
PASI 240529Z 2406/2506 00000KT P6SM VCSH SCT025 BKN035 OVC080
      TEMPO 2406/2410 VRB03KT 6SM -RA BR BKN025 BKN030 OVC080
     FM241200 VRB03KT P6SM -RA BKN025 OVC035
     FM241800 22005KT P6SM -SHRA SCT025 OVC050=

USA.gov is the U.S. government's official web portal to all federal, state and local government web resources and services.